Photometre #741[NE_1.6] Arcachon AOT

File : 20221123_741.hum

23/11/2022,08:12:10,TEMP=14.7,BA=5.32,STAT.A=2.0,ExtBa=12.76
23/11/2022,08:16:49,TEMP=14.9,BA=5.32,STAT.A=2.0,ExtBa=12.69
23/11/2022,08:22:20,TEMP=15.0,BA=5.40,STAT.A=2.0,ExtBa=12.66
23/11/2022,08:28:59,TEMP=15.0,BA=5.40,STAT.A=2.0,ExtBa=12.65
23/11/2022,08:37:11,TEMP=15.3,BA=5.28,STAT.A=2.0,ExtBa=12.83
23/11/2022,08:47:35,TEMP=15.8,BA=5.44,STAT.A=2.0,ExtBa=13.12
23/11/2022,08:51:22,TEMP=16.1,BA=5.52,STAT.F,ExtBa=13.06
23/11/2022,09:06:20,TEMP=16.4,BA=5.32,STAT.D=2.0,ExtBa=12.55
23/11/2022,09:21:20,TEMP=16.1,BA=5.60,STAT.D=2.0,ExtBa=12.97
23/11/2022,09:36:20,TEMP=16.3,BA=5.60,STAT.D=2.0,ExtBa=13.42
23/11/2022,09:51:22,TEMP=16.3,BA=5.60,STAT.F,ExtBa=13.46
23/11/2022,10:07:15,TEMP=16.9,BA=5.36,STAT.D=2.0,ExtBa=13.03
23/11/2022,10:21:20,TEMP=17.7,BA=5.64,STAT.D=2.0,ExtBa=13.69
23/11/2022,10:36:20,TEMP=17.9,BA=5.60,STAT.D=2.0,ExtBa=13.73
23/11/2022,10:51:22,TEMP=18.1,BA=5.60,STAT.F,ExtBa=13.26
23/11/2022,11:06:21,TEMP=17.1,BA=5.60,STAT.D=2.0,ExtBa=13.45
23/11/2022,11:21:21,TEMP=17.2,BA=5.60,STAT.D=2.0,ExtBa=13.54
23/11/2022,11:36:21,TEMP=17.8,BA=5.64,STAT.D=2.0,ExtBa=13.90
23/11/2022,11:51:22,TEMP=18.3,BA=5.64,STAT.F,ExtBa=13.80
23/11/2022,12:06:20,TEMP=18.1,BA=5.40,STAT.D=2.0,ExtBa=13.25
23/11/2022,12:21:21,TEMP=17.2,BA=5.60,STAT.D=2.0,ExtBa=13.07
23/11/2022,12:36:01,TEMP=17.4,BA=5.48,STAT.h
23/11/2022,12:51:01,TEMP=17.4,BA=5.64,STAT.h
23/11/2022,13:06:01,TEMP=17.4,BA=5.52,STAT.h
23/11/2022,13:21:01,TEMP=17.4,BA=5.64,STAT.h
23/11/2022,13:36:01,TEMP=17.4,BA=5.44,STAT.h
23/11/2022,13:51:01,TEMP=17.4,BA=5.64,STAT.h
23/11/2022,14:06:20,TEMP=13.6,BA=5.64,STAT.D=2.0,ExtBa=13.05
23/11/2022,14:21:01,TEMP=14.0,BA=5.64,STAT.h
23/11/2022,14:36:01,TEMP=14.0,BA=5.64,STAT.h
23/11/2022,14:51:01,TEMP=14.0,BA=5.64,STAT.h
23/11/2022,14:55:09,TEMP=15.2,BA=5.64,STAT.A=2.0,ExtBa=13.04
23/11/2022,15:05:32,TEMP=15.3,BA=5.64,STAT.A=2.0,ExtBa=12.95
23/11/2022,15:13:44,TEMP=15.1,BA=5.64,STAT.A=2.0,ExtBa=12.93
23/11/2022,15:20:22,TEMP=15.1,BA=5.64,STAT.A=2.0,ExtBa=12.90
23/11/2022,15:25:53,TEMP=15.1,BA=5.64,STAT.A=2.0,ExtBa=12.89
23/11/2022,15:30:32,TEMP=15.1,BA=5.52,STAT.A=2.0,ExtBa=12.88
23/11/2022,16:56:01,TEMP=15.3,BA=5.36,STAT.h